Time;durP1;ratioP1;P1;durP2;ratioP2;P2;SDS_P1;SDS_P2;PMS_P1;PMS_P2;Temp;Humidity;BMP_temperature;BMP_pressure;BME280_temperature;BME280_humidity;BME280_pressure;Samples;Min_cycle;Max_cycle;Signal;HPM_P1;HPM_P2
2021/12/26 00:00:53;;;;;;;10.35;6.60;;;2.30;99.90;;;;;;5014306;28;20026;-66
2021/12/26 00:03:20;;;;;;;8.93;6.85;;;2.20;99.90;;;;;;5014294;28;20403;-66
2021/12/26 00:05:46;;;;;;;10.65;7.25;;;2.20;99.90;;;;;;5014136;28;20022;-64
2021/12/26 00:08:12;;;;;;;9.23;5.97;;;2.20;99.90;;;;;;5013413;28;20044;-65
2021/12/26 00:10:38;;;;;;;9.10;6.50;;;2.10;99.90;;;;;;5014291;28;20030;-66
2021/12/26 00:13:05;;;;;;;9.05;6.53;;;2.20;99.90;;;;;;5014725;28;20038;-64
2021/12/26 00:15:31;;;;;;;10.00;6.38;;;2.10;99.90;;;;;;5016002;28;20029;-66
2021/12/26 00:17:56;;;;;;;11.00;6.80;;;2.10;99.90;;;;;;5014831;28;20091;-64
2021/12/26 00:20:22;;;;;;;9.13;6.20;;;2.10;99.90;;;;;;5014168;28;20409;-68
2021/12/26 00:22:49;;;;;;;8.80;6.65;;;2.20;99.90;;;;;;5013966;28;20505;-67
2021/12/26 00:25:15;;;;;;;10.73;6.72;;;2.30;99.90;;;;;;5014458;28;20022;-64
2021/12/26 00:27:41;;;;;;;8.20;6.78;;;2.30;99.90;;;;;;5012607;28;20034;-72
2021/12/26 00:30:12;;;;;;;9.63;6.47;;;2.30;99.90;;;;;;5014530;28;20060;-65
2021/12/26 00:32:39;;;;;;;9.38;6.22;;;2.40;99.90;;;;;;4998192;28;20045;-65
2021/12/26 00:35:06;;;;;;;9.68;7.15;;;2.40;99.90;;;;;;5015257;28;20034;-68
2021/12/26 00:37:32;;;;;;;8.73;6.63;;;2.30;99.90;;;;;;5014422;28;20042;-69
2021/12/26 00:39:58;;;;;;;9.57;6.65;;;2.20;99.90;;;;;;5015642;28;20472;-66
2021/12/26 00:42:23;;;;;;;10.35;6.40;;;2.30;99.90;;;;;;5012700;28;20034;-64
2021/12/26 00:44:52;;;;;;;9.57;6.45;;;2.30;99.90;;;;;;5012341;28;20030;-65
2021/12/26 00:47:18;;;;;;;8.10;6.15;;;2.20;99.90;;;;;;5013849;28;20068;-64
2021/12/26 00:49:43;;;;;;;11.77;7.22;;;2.30;99.90;;;;;;5013444;28;20061;-64
2021/12/26 00:52:09;;;;;;;10.52;6.75;;;2.30;99.90;;;;;;5013591;28;20105;-64
2021/12/26 00:54:35;;;;;;;11.00;7.03;;;2.30;99.90;;;;;;5013185;28;20026;-65
2021/12/26 00:57:02;;;;;;;9.80;6.57;;;2.20;99.90;;;;;;5012810;28;20045;-64
2021/12/26 00:59:28;;;;;;;8.73;6.50;;;2.30;99.90;;;;;;5013341;28;20156;-66
2021/12/26 01:01:55;;;;;;;9.77;7.35;;;2.30;99.90;;;;;;5014571;28;20491;-65
2021/12/26 01:04:22;;;;;;;9.05;6.53;;;2.30;99.90;;;;;;5014184;28;20034;-66
2021/12/26 01:06:48;;;;;;;8.63;6.70;;;2.30;99.90;;;;;;5011995;28;20132;-66
2021/12/26 01:09:21;;;;;;;10.25;6.38;;;2.40;99.90;;;;;;5012839;28;20120;-67
2021/12/26 01:11:52;;;;;;;8.48;6.68;;;2.30;99.90;;;;;;5014232;28;20037;-67
2021/12/26 01:14:25;;;;;;;9.20;6.33;;;2.30;99.90;;;;;;5013029;28;20040;-67
2021/12/26 01:17:00;;;;;;;11.57;7.05;;;2.20;99.90;;;;;;5013739;28;20022;-68
2021/12/26 01:19:34;;;;;;;9.40;6.63;;;2.20;99.90;;;;;;5014909;28;20446;-64
2021/12/26 01:22:00;;;;;;;10.23;6.50;;;2.20;99.90;;;;;;5013440;28;20026;-67
2021/12/26 01:24:26;;;;;;;9.80;6.45;;;2.30;99.90;;;;;;5014150;28;20030;-68
2021/12/26 01:26:52;;;;;;;11.18;6.70;;;2.30;99.90;;;;;;5014788;28;20033;-66
2021/12/26 01:29:17;;;;;;;10.68;6.85;;;2.30;99.90;;;;;;5011830;28;20454;-63
2021/12/26 01:31:43;;;;;;;9.88;7.25;;;2.30;99.90;;;;;;5011394;28;20029;-67
2021/12/26 01:34:09;;;;;;;10.80;7.45;;;2.30;99.90;;;;;;5011825;28;20022;-64
2021/12/26 01:36:35;;;;;;;8.70;6.32;;;2.30;99.90;;;;;;5013230;28;20384;-64
2021/12/26 01:39:08;;;;;;;10.43;6.57;;;2.30;99.90;;;;;;5012790;28;20467;-67
2021/12/26 01:41:39;;;;;;;10.02;7.30;;;2.20;99.90;;;;;;5010928;28;20025;-66
2021/12/26 01:44:05;;;;;;;11.98;7.80;;;2.20;99.90;;;;;;5011694;28;20037;-66
2021/12/26 01:46:31;;;;;;;9.75;6.85;;;2.20;99.90;;;;;;5013059;28;20025;-64
2021/12/26 01:49:17;;;;;;;9.88;6.18;;;2.20;99.90;;;;;;5011121;28;20038;-69
2021/12/26 01:51:46;;;;;;;8.85;6.95;;;2.30;99.90;;;;;;5012464;28;20375;-64
2021/12/26 01:54:16;;;;;;;8.52;6.30;;;2.40;99.90;;;;;;5012881;28;20026;-65
2021/12/26 01:56:43;;;;;;;9.23;6.85;;;2.30;99.90;;;;;;5011304;28;20386;-66
2021/12/26 01:59:11;;;;;;;12.82;7.07;;;2.20;99.90;;;;;;5012964;28;20041;-65
2021/12/26 02:01:37;;;;;;;9.90;6.63;;;2.20;99.90;;;;;;5012042;28;20026;-64
2021/12/26 02:04:05;;;;;;;9.50;6.88;;;2.30;99.90;;;;;;5012592;28;20029;-65
2021/12/26 02:06:31;;;;;;;8.68;6.75;;;2.10;99.90;;;;;;5012860;28;20065;-68
2021/12/26 02:08:56;;;;;;;11.10;6.88;;;2.20;99.90;;;;;;5011040;28;20281;-64
2021/12/26 02:11:22;;;;;;;11.18;7.53;;;2.20;99.90;;;;;;5012595;28;20026;-66
2021/12/26 02:13:51;;;;;;;10.25;7.47;;;2.20;99.90;;;;;;5012200;28;20030;-66
2021/12/26 02:16:16;;;;;;;11.95;7.10;;;2.20;99.90;;;;;;5014246;28;20031;-65
2021/12/26 02:18:42;;;;;;;10.70;6.85;;;2.10;99.90;;;;;;5015860;28;20394;-63
2021/12/26 02:24:05;;;;;;;9.25;6.82;;;2.10;99.90;;;;;;5017295;28;20025;-65
2021/12/26 02:29:15;;;;;;;12.25;8.15;;;2.00;99.90;;;;;;5017774;28;19924;-68
2021/12/26 02:31:40;;;;;;;11.05;7.95;;;2.10;99.90;;;;;;5017455;28;20388;-65
2021/12/26 02:34:06;;;;;;;13.85;6.80;;;2.20;99.90;;;;;;5018077;28;20026;-66
2021/12/26 02:36:32;;;;;;;9.82;6.90;;;2.10;99.90;;;;;;5017424;28;20030;-65
2021/12/26 02:38:59;;;;;;;10.18;6.45;;;2.10;99.90;;;;;;5015115;28;20471;-65
2021/12/26 02:41:24;;;;;;;13.48;8.15;;;2.10;99.90;;;;;;5016699;28;20030;-64
2021/12/26 02:43:50;;;;;;;11.77;7.10;;;2.00;99.90;;;;;;5015937;28;20120;-64
2021/12/26 02:46:16;;;;;;;9.13;7.05;;;1.90;99.90;;;;;;5015455;28;20033;-64
2021/12/26 02:48:41;;;;;;;11.35;7.63;;;2.00;99.90;;;;;;5015872;28;20040;-66
2021/12/26 02:51:07;;;;;;;10.25;7.18;;;1.90;99.90;;;;;;5015248;28;20056;-65
2021/12/26 02:53:34;;;;;;;11.18;7.40;;;1.90;99.90;;;;;;5016399;28;20395;-65
2021/12/26 02:56:00;;;;;;;12.40;8.00;;;2.00;99.90;;;;;;5015888;28;20221;-64
2021/12/26 02:58:27;;;;;;;10.55;6.88;;;2.00;99.90;;;;;;5016532;28;20038;-66
2021/12/26 03:01:08;;;;;;;11.68;7.40;;;2.00;99.90;;;;;;5014054;28;20025;-65
2021/12/26 03:03:34;;;;;;;11.93;7.65;;;2.00;99.90;;;;;;5016234;28;20475;-65
2021/12/26 03:06:05;;;;;;;11.07;8.30;;;1.90;99.90;;;;;;5015452;28;20022;-65
2021/12/26 03:08:30;;;;;;;10.75;8.20;;;1.90;99.90;;;;;;5015586;28;20486;-64
2021/12/26 03:10:56;;;;;;;11.65;7.57;;;2.00;99.90;;;;;;5013846;28;20034;-64
2021/12/26 03:13:23;;;;;;;11.38;8.27;;;2.00;99.90;;;;;;5015446;28;20080;-65
2021/12/26 03:15:49;;;;;;;13.70;8.43;;;2.00;99.90;;;;;;5013557;28;20026;-68
2021/12/26 03:18:15;;;;;;;13.07;7.55;;;2.10;99.90;;;;;;5013976;28;20134;-63
2021/12/26 03:20:45;;;;;;;11.52;7.82;;;2.00;99.90;;;;;;5015344;28;20048;-64
2021/12/26 03:23:13;;;;;;;12.77;7.78;;;1.90;99.90;;;;;;5014319;28;20030;-64
2021/12/26 03:25:39;;;;;;;10.02;7.10;;;1.90;99.90;;;;;;5015435;28;20026;-64
2021/12/26 03:28:06;;;;;;;11.27;8.10;;;1.90;99.90;;;;;;5014746;28;20167;-69
2021/12/26 03:30:33;;;;;;;11.05;8.18;;;2.00;99.90;;;;;;5015454;28;20049;-64
2021/12/26 03:33:01;;;;;;;12.77;8.25;;;2.00;99.90;;;;;;5014634;28;20026;-64
2021/12/26 03:35:28;;;;;;;11.88;7.63;;;2.00;99.90;;;;;;5016190;28;20033;-70
2021/12/26 03:37:55;;;;;;;11.70;7.88;;;2.00;99.90;;;;;;5016077;28;20038;-67
2021/12/26 03:40:21;;;;;;;11.68;7.65;;;2.00;99.90;;;;;;5016081;28;20046;-64
2021/12/26 03:42:46;;;;;;;9.57;7.03;;;2.00;99.90;;;;;;5013705;28;20038;-65
2021/12/26 03:45:12;;;;;;;11.68;8.27;;;2.00;99.90;;;;;;5015792;28;20032;-64
2021/12/26 03:47:39;;;;;;;12.13;8.27;;;2.00;99.90;;;;;;5015461;28;20034;-64
2021/12/26 03:50:07;;;;;;;10.35;7.40;;;2.00;99.90;;;;;;5014628;28;20022;-65
2021/12/26 03:52:33;;;;;;;10.02;7.50;;;2.00;99.90;;;;;;5015066;28;20057;-63
2021/12/26 03:54:59;;;;;;;13.13;8.15;;;2.00;99.90;;;;;;5014702;28;20026;-64
2021/12/26 03:57:24;;;;;;;10.07;6.85;;;1.90;99.90;;;;;;5014879;28;20479;-65
2021/12/26 03:59:50;;;;;;;11.80;7.93;;;2.00;99.90;;;;;;5013327;28;20076;-64
2021/12/26 04:02:16;;;;;;;11.02;7.85;;;2.10;99.90;;;;;;5014715;28;20030;-65
2021/12/26 04:04:44;;;;;;;12.30;8.02;;;2.10;99.90;;;;;;5013663;28;20026;-64
2021/12/26 04:07:11;;;;;;;12.32;7.72;;;2.10;99.90;;;;;;5014913;28;20109;-65
2021/12/26 04:09:37;;;;;;;11.55;8.00;;;2.10;99.90;;;;;;5013455;28;20120;-64
2021/12/26 04:12:03;;;;;;;11.27;6.90;;;2.00;99.90;;;;;;5014320;28;20034;-68
2021/12/26 04:14:29;;;;;;;13.52;7.88;;;2.00;99.90;;;;;;5014895;28;20045;-65
2021/12/26 04:16:55;;;;;;;11.15;6.88;;;2.00;99.90;;;;;;5014124;28;20105;-65
2021/12/26 04:19:20;;;;;;;11.10;7.38;;;2.10;99.90;;;;;;5015048;28;20033;-64
2021/12/26 04:21:46;;;;;;;11.63;7.53;;;2.00;99.90;;;;;;5012760;28;20021;-64
2021/12/26 04:24:12;;;;;;;10.18;6.75;;;2.10;99.90;;;;;;5014295;28;20034;-64
2021/12/26 04:26:39;;;;;;;15.77;8.30;;;2.10;99.90;;;;;;5014429;28;20101;-64
2021/12/26 04:29:06;;;;;;;12.52;7.90;;;2.00;99.90;;;;;;5013420;28;20501;-64
2021/12/26 04:31:32;;;;;;;13.80;7.82;;;2.00;99.90;;;;;;5014297;28;20033;-64
2021/12/26 04:33:58;;;;;;;10.10;7.35;;;2.10;99.90;;;;;;5012132;28;20025;-64
2021/12/26 04:36:23;;;;;;;10.65;7.97;;;2.00;99.90;;;;;;5013179;28;20026;-65
2021/12/26 04:38:49;;;;;;;10.55;7.25;;;2.00;99.90;;;;;;5014928;28;20038;-65
2021/12/26 04:41:15;;;;;;;13.98;8.38;;;2.00;99.90;;;;;;5013004;28;20109;-66
2021/12/26 04:43:41;;;;;;;11.48;7.70;;;2.00;99.90;;;;;;5012730;28;20038;-64
2021/12/26 04:46:08;;;;;;;14.32;8.63;;;1.90;99.90;;;;;;5013104;28;20036;-65
2021/12/26 04:48:35;;;;;;;10.88;7.75;;;2.00;99.90;;;;;;5013936;28;20152;-64
2021/12/26 04:51:01;;;;;;;12.73;8.18;;;2.10;99.90;;;;;;5011946;28;20139;-64
2021/12/26 04:53:27;;;;;;;11.55;7.05;;;2.10;99.90;;;;;;5012610;28;20073;-63
2021/12/26 04:55:53;;;;;;;17.02;7.75;;;2.10;99.90;;;;;;5013213;28;20026;-66
2021/12/26 04:58:19;;;;;;;11.55;7.53;;;2.00;99.90;;;;;;5012485;28;20150;-67
2021/12/26 05:00:45;;;;;;;12.15;8.23;;;2.10;99.90;;;;;;5013100;28;20036;-64
2021/12/26 05:03:10;;;;;;;11.10;8.27;;;2.10;99.90;;;;;;5013379;28;20034;-63
2021/12/26 05:05:36;;;;;;;11.73;7.63;;;2.00;99.90;;;;;;5012554;28;20109;-67
2021/12/26 05:08:04;;;;;;;13.38;7.95;;;2.00;99.90;;;;;;5013963;28;20050;-70
2021/12/26 05:10:30;;;;;;;12.13;7.88;;;2.10;99.90;;;;;;5015089;28;20101;-66
2021/12/26 05:13:00;;;;;;;10.25;7.00;;;2.00;99.90;;;;;;5014982;28;20121;-69
2021/12/26 05:15:26;;;;;;;13.55;8.27;;;2.00;99.90;;;;;;5015135;28;20030;-66
2021/12/26 05:17:53;;;;;;;13.23;8.05;;;1.90;99.90;;;;;;5012107;28;20045;-64
2021/12/26 05:20:20;;;;;;;12.75;8.32;;;2.00;99.90;;;;;;5013434;28;20030;-65
2021/12/26 05:22:50;;;;;;;11.02;7.35;;;1.80;99.90;;;;;;5011878;28;20030;-63
2021/12/26 05:25:16;;;;;;;13.90;8.77;;;1.90;99.90;;;;;;5013217;28;20065;-64
2021/12/26 05:27:43;;;;;;;12.45;8.48;;;1.90;99.90;;;;;;5013537;28;20033;-64
2021/12/26 05:30:12;;;;;;;11.25;8.45;;;2.00;99.90;;;;;;5012748;28;20329;-65
2021/12/26 05:32:38;;;;;;;10.18;7.63;;;2.00;99.90;;;;;;5013395;28;20109;-68
2021/12/26 05:35:05;;;;;;;11.88;7.78;;;2.10;99.90;;;;;;5011449;28;20058;-64
2021/12/26 05:37:30;;;;;;;11.43;7.53;;;2.00;99.90;;;;;;5012988;28;20057;-65
2021/12/26 05:39:57;;;;;;;12.68;7.93;;;2.00;99.90;;;;;;5012657;28;20026;-64
2021/12/26 05:42:26;;;;;;;12.98;8.10;;;2.00;99.90;;;;;;5013417;28;20061;-68
2021/12/26 05:44:52;;;;;;;12.38;8.20;;;2.10;99.90;;;;;;5014611;28;20109;-66
2021/12/26 05:47:17;;;;;;;13.88;8.50;;;2.10;99.90;;;;;;5015588;28;20034;-67
2021/12/26 05:49:43;;;;;;;10.15;7.40;;;2.00;99.90;;;;;;5014928;28;20380;-65
2021/12/26 05:52:09;;;;;;;11.82;8.15;;;2.00;99.90;;;;;;5012074;28;20026;-65
2021/12/26 05:54:35;;;;;;;12.05;8.05;;;2.00;99.90;;;;;;5013838;28;20025;-64
2021/12/26 05:57:01;;;;;;;10.68;8.15;;;2.00;99.90;;;;;;5012541;28;20022;-65
2021/12/26 05:59:27;;;;;;;11.10;7.45;;;2.00;99.90;;;;;;5013430;28;20080;-64
2021/12/26 06:01:53;;;;;;;13.75;9.02;;;2.00;99.90;;;;;;5012786;28;20111;-64
2021/12/26 06:04:19;;;;;;;10.60;7.53;;;2.10;99.90;;;;;;5011893;28;20073;-65
2021/12/26 06:06:45;;;;;;;11.68;8.23;;;2.00;99.90;;;;;;5012553;28;20030;-64
2021/12/26 06:09:11;;;;;;;13.30;8.13;;;2.00;99.90;;;;;;5013129;28;20038;-65
2021/12/26 06:11:37;;;;;;;12.20;8.63;;;2.00;99.90;;;;;;5013563;28;20440;-64
2021/12/26 06:14:03;;;;;;;10.68;7.65;;;2.00;99.90;;;;;;5011966;28;20034;-65
2021/12/26 06:16:29;;;;;;;10.25;7.55;;;1.90;99.90;;;;;;5011519;28;20061;-63
2021/12/26 06:18:55;;;;;;;14.20;8.48;;;1.90;99.90;;;;;;5011870;28;20080;-63
2021/12/26 06:21:20;;;;;;;12.40;8.27;;;2.00;99.90;;;;;;5013089;28;20034;-65
2021/12/26 06:23:50;;;;;;;13.50;7.93;;;2.00;99.90;;;;;;5013579;28;20072;-66
2021/12/26 06:26:17;;;;;;;9.95;7.57;;;2.10;99.90;;;;;;5012631;28;20038;-66
2021/12/26 06:28:43;;;;;;;13.82;9.07;;;2.00;99.90;;;;;;5013277;28;20113;-65
2021/12/26 06:31:08;;;;;;;13.20;7.93;;;2.00;99.90;;;;;;5012299;28;20448;-64
2021/12/26 06:33:34;;;;;;;11.40;7.72;;;2.10;99.90;;;;;;5014365;28;20482;-65
2021/12/26 06:35:59;;;;;;;11.80;8.02;;;2.10;99.90;;;;;;5012970;28;20034;-65
2021/12/26 06:38:25;;;;;;;12.18;8.30;;;2.00;99.90;;;;;;5011780;28;20463;-64
2021/12/26 06:40:51;;;;;;;11.77;7.78;;;2.00;99.90;;;;;;5011857;28;20099;-65
2021/12/26 06:43:17;;;;;;;12.98;8.50;;;1.90;99.90;;;;;;5012238;28;20030;-64
2021/12/26 06:45:42;;;;;;;15.43;9.45;;;2.00;99.90;;;;;;5012245;28;20055;-65
2021/12/26 06:48:08;;;;;;;12.50;8.00;;;2.10;99.90;;;;;;5012959;28;20051;-64
2021/12/26 06:50:36;;;;;;;11.63;8.40;;;2.00;99.90;;;;;;5013077;28;20028;-66
2021/12/26 06:53:02;;;;;;;12.80;8.05;;;2.00;99.90;;;;;;5012831;28;20022;-65
2021/12/26 06:55:28;;;;;;;11.57;8.07;;;1.90;99.90;;;;;;5013220;28;20022;-63
2021/12/26 06:57:54;;;;;;;14.38;8.48;;;1.80;99.90;;;;;;5013071;28;20037;-64
2021/12/26 07:00:20;;;;;;;12.40;7.85;;;1.80;99.90;;;;;;5012172;28;20109;-64
2021/12/26 07:02:46;;;;;;;12.75;8.80;;;1.80;99.90;;;;;;5014040;28;20032;-64
2021/12/26 07:05:12;;;;;;;14.30;9.27;;;1.80;99.90;;;;;;5014152;28;20464;-65
2021/12/26 07:07:39;;;;;;;11.32;7.90;;;1.80;99.90;;;;;;5015803;28;20076;-63
2021/12/26 07:10:06;;;;;;;12.70;8.98;;;1.90;99.90;;;;;;5015070;28;20030;-64
2021/12/26 07:12:31;;;;;;;11.75;8.45;;;2.00;99.90;;;;;;5015908;28;20026;-68
2021/12/26 07:14:57;;;;;;;11.77;8.65;;;2.00;99.90;;;;;;5014982;28;20108;-64
2021/12/26 07:17:23;;;;;;;12.68;8.93;;;2.10;99.90;;;;;;5015560;28;20126;-65
2021/12/26 07:19:48;;;;;;;13.10;8.82;;;2.10;99.90;;;;;;5015573;28;20037;-64
2021/12/26 07:22:14;;;;;;;11.70;7.80;;;2.10;99.90;;;;;;5014844;28;20497;-64
2021/12/26 07:24:43;;;;;;;15.57;9.20;;;2.00;99.90;;;;;;5015282;28;20037;-65
2021/12/26 07:27:13;;;;;;;14.88;8.63;;;2.10;99.90;;;;;;5014881;28;20029;-65
2021/12/26 07:29:39;;;;;;;13.98;9.10;;;2.00;99.90;;;;;;5016819;28;20041;-67
2021/12/26 07:32:06;;;;;;;10.60;8.07;;;2.00;99.90;;;;;;5016032;28;20033;-66
2021/12/26 07:34:33;;;;;;;14.20;8.98;;;2.00;99.90;;;;;;5014512;28;20038;-64
2021/12/26 07:36:59;;;;;;;12.00;8.07;;;2.10;99.90;;;;;;5014673;28;20037;-64
2021/12/26 07:39:24;;;;;;;14.27;8.05;;;2.10;99.90;;;;;;5014381;28;20030;-66
2021/12/26 07:41:50;;;;;;;13.77;8.00;;;2.10;99.90;;;;;;5016819;28;20034;-65
2021/12/26 07:44:16;;;;;;;12.80;8.50;;;2.20;99.90;;;;;;5016165;28;20446;-68
2021/12/26 07:46:41;;;;;;;11.50;8.30;;;2.10;99.90;;;;;;5014035;28;20037;-64
2021/12/26 07:49:07;;;;;;;11.60;7.97;;;2.10;99.90;;;;;;5013245;28;20037;-64
2021/12/26 07:51:34;;;;;;;14.60;7.68;;;2.20;99.90;;;;;;5015264;28;20072;-64
2021/12/26 07:54:01;;;;;;;12.88;7.85;;;2.20;99.90;;;;;;5014165;28;20030;-64
2021/12/26 07:56:30;;;;;;;13.45;8.77;;;2.20;99.90;;;;;;5015161;28;20109;-63
2021/12/26 07:58:56;;;;;;;12.38;8.32;;;2.20;99.90;;;;;;5014882;28;20040;-64
2021/12/26 08:01:23;;;;;;;11.30;7.28;;;2.20;99.90;;;;;;5015009;28;20026;-67
2021/12/26 08:03:48;;;;;;;12.23;8.00;;;2.20;99.90;;;;;;5016033;28;20034;-65
2021/12/26 08:06:18;;;;;;;13.18;7.97;;;2.20;99.90;;;;;;5014866;28;20026;-64
2021/12/26 08:08:45;;;;;;;13.20;8.20;;;2.20;99.90;;;;;;5013813;28;20029;-66
2021/12/26 08:11:12;;;;;;;11.48;8.25;;;2.20;99.90;;;;;;5014337;28;20022;-64
2021/12/26 08:13:38;;;;;;;12.80;8.10;;;2.10;99.90;;;;;;5013916;28;20034;-65
2021/12/26 08:16:04;;;;;;;13.18;8.35;;;2.10;99.90;;;;;;5013812;28;20528;-65
2021/12/26 08:18:29;;;;;;;12.15;7.90;;;2.20;99.90;;;;;;5013692;28;20390;-66
2021/12/26 08:20:55;;;;;;;15.85;8.65;;;2.20;99.90;;;;;;5016118;28;20117;-67
2021/12/26 08:23:21;;;;;;;12.77;7.78;;;2.20;99.90;;;;;;5014376;28;20443;-65
2021/12/26 08:25:47;;;;;;;14.48;8.98;;;2.20;99.90;;;;;;5014535;28;20025;-65
2021/12/26 08:28:14;;;;;;;11.85;7.90;;;2.20;99.90;;;;;;5013883;28;20026;-64
2021/12/26 08:30:41;;;;;;;10.55;7.18;;;2.10;99.90;;;;;;5012667;28;20045;-65
2021/12/26 08:33:07;;;;;;;11.38;8.20;;;2.20;99.90;;;;;;5013712;28;20032;-64
2021/12/26 08:35:34;;;;;;;13.15;9.13;;;2.30;99.90;;;;;;5013201;28;20026;-64
2021/12/26 08:38:00;;;;;;;11.68;7.85;;;2.20;99.90;;;;;;5014947;28;20112;-63
2021/12/26 08:40:26;;;;;;;11.95;8.30;;;2.20;99.90;;;;;;5014044;28;20061;-65
2021/12/26 08:42:52;;;;;;;11.73;7.95;;;2.20;99.90;;;;;;5012886;28;20057;-66
2021/12/26 08:45:18;;;;;;;10.75;6.95;;;2.40;99.90;;;;;;5012407;28;20490;-65
2021/12/26 08:47:43;;;;;;;13.32;7.90;;;2.30;99.90;;;;;;5014337;28;20084;-65
2021/12/26 08:50:11;;;;;;;13.43;8.45;;;2.40;99.90;;;;;;5012136;28;20026;-65
2021/12/26 08:52:37;;;;;;;11.43;8.30;;;2.30;99.90;;;;;;5007413;28;20476;-64
2021/12/26 08:55:04;;;;;;;14.32;8.48;;;2.30;99.90;;;;;;5008774;28;20026;-66
2021/12/26 08:57:30;;;;;;;13.25;9.38;;;2.30;99.90;;;;;;5007987;28;20057;-64
2021/12/26 08:59:56;;;;;;;12.27;8.20;;;2.30;99.90;;;;;;5013534;28;20018;-65
2021/12/26 09:02:23;;;;;;;11.57;7.72;;;2.40;99.90;;;;;;5011930;28;20284;-65
2021/12/26 09:04:49;;;;;;;13.15;8.30;;;3.60;99.90;;;;;;5005161;28;20472;-65
2021/12/26 09:07:14;;;;;;;12.30;7.95;;;3.10;99.90;;;;;;4993347;28;20034;-65
2021/12/26 09:09:41;;;;;;;10.88;7.97;;;2.80;99.90;;;;;;4993970;28;20030;-66
2021/12/26 09:12:07;;;;;;;12.60;7.70;;;2.70;99.90;;;;;;4994038;28;20113;-64
2021/12/26 09:14:33;;;;;;;10.63;7.45;;;2.60;99.90;;;;;;4994001;28;20034;-67
2021/12/26 09:17:00;;;;;;;12.63;8.50;;;2.60;99.90;;;;;;4995359;28;20026;-67
2021/12/26 09:19:28;;;;;;;13.77;8.77;;;2.50;99.90;;;;;;4994260;28;20031;-67
2021/12/26 09:21:58;;;;;;;14.05;8.68;;;2.50;99.90;;;;;;4994594;28;20030;-65
2021/12/26 09:24:24;;;;;;;14.88;9.15;;;2.50;99.90;;;;;;4992736;28;20034;-68
2021/12/26 09:26:50;;;;;;;11.75;8.55;;;2.50;99.90;;;;;;4992794;28;20045;-67
2021/12/26 09:29:16;;;;;;;15.80;9.18;;;2.40;99.90;;;;;;4993194;28;20698;-66
2021/12/26 09:31:41;;;;;;;13.88;8.85;;;2.50;99.90;;;;;;4994951;28;20054;-68
2021/12/26 09:34:07;;;;;;;12.82;9.02;;;2.50;99.90;;;;;;4992387;28;20483;-66
2021/12/26 09:36:35;;;;;;;12.25;8.10;;;2.60;99.90;;;;;;4994429;28;20018;-66
2021/12/26 09:39:03;;;;;;;11.57;8.48;;;2.70;99.90;;;;;;5009019;28;20034;-66
2021/12/26 09:41:28;;;;;;;11.50;7.07;;;2.60;99.90;;;;;;4992905;28;20460;-66
2021/12/26 09:43:54;;;;;;;14.45;9.20;;;2.60;99.90;;;;;;4993570;28;20113;-69
2021/12/26 09:46:20;;;;;;;13.20;8.30;;;2.50;99.90;;;;;;4999534;28;20106;-65
2021/12/26 09:49:21;;;;;;;13.73;8.75;;;2.60;99.90;;;;;;4993659;28;20027;-67
2021/12/26 09:51:49;;;;;;;13.60;7.90;;;2.60;99.90;;;;;;4940677;28;20094;-72
2021/12/26 09:54:16;;;;;;;12.35;8.93;;;2.80;99.90;;;;;;4971189;28;20027;-66
2021/12/26 09:56:41;;;;;;;16.05;8.52;;;2.80;99.90;;;;;;4954587;28;20035;-66
2021/12/26 09:59:14;;;;;;;12.93;8.70;;;2.80;99.90;;;;;;4970627;28;20507;-64
2021/12/26 10:01:42;;;;;;;13.25;8.60;;;2.80;99.90;;;;;;4969652;28;20030;-65
2021/12/26 10:04:29;;;;;;;11.90;8.05;;;2.80;99.90;;;;;;4971323;28;20045;-65
2021/12/26 10:07:05;;;;;;;12.35;8.23;;;2.80;99.90;;;;;;4970799;28;20145;-66
2021/12/26 10:09:32;;;;;;;13.73;7.90;;;2.90;99.90;;;;;;4971762;28;20035;-66
2021/12/26 10:12:00;;;;;;;13.77;8.80;;;3.00;99.90;;;;;;4955397;28;20155;-69
2021/12/26 10:14:33;;;;;;;11.93;8.40;;;3.00;99.90;;;;;;4970818;28;20290;-65
2021/12/26 10:17:00;;;;;;;14.27;8.77;;;3.00;99.90;;;;;;4955302;28;20035;-63
2021/12/26 10:19:26;;;;;;;12.93;8.88;;;2.90;99.90;;;;;;4969032;28;20131;-64
2021/12/26 10:21:58;;;;;;;16.30;9.23;;;3.00;99.90;;;;;;4967290;28;20042;-65
2021/12/26 10:24:29;;;;;;;13.63;8.48;;;3.10;99.90;;;;;;4970871;28;20035;-67
2021/12/26 10:26:59;;;;;;;12.30;8.10;;;3.10;99.90;;;;;;4969431;28;20109;-64
2021/12/26 10:29:54;;;;;;;11.13;7.80;;;3.00;99.90;;;;;;5003082;28;20049;-67
2021/12/26 10:32:33;;;;;;;17.48;8.85;;;2.90;99.90;;;;;;5005247;28;20077;-66
2021/12/26 10:35:05;;;;;;;14.73;8.85;;;2.90;99.90;;;;;;5009126;28;20032;-67
2021/12/26 10:37:40;;;;;;;13.77;9.07;;;2.90;99.90;;;;;;5011247;28;20034;-67
2021/12/26 10:40:10;;;;;;;12.65;8.38;;;3.00;99.90;;;;;;5013077;28;20561;-67
2021/12/26 10:42:39;;;;;;;14.13;8.20;;;2.90;99.90;;;;;;5015842;28;20030;-66
2021/12/26 10:45:15;;;;;;;13.30;8.85;;;3.00;99.90;;;;;;5033724;28;20025;-66
2021/12/26 10:47:43;;;;;;;13.13;8.77;;;3.00;99.90;;;;;;5010941;28;20025;-66
2021/12/26 10:50:11;;;;;;;16.17;9.77;;;3.00;99.90;;;;;;5015653;28;20472;-65
2021/12/26 10:52:48;;;;;;;17.83;9.77;;;3.00;99.90;;;;;;5014332;28;20116;-67
2021/12/26 10:55:17;;;;;;;12.35;8.13;;;3.00;99.90;;;;;;5009466;28;20026;-65
2021/12/26 10:57:49;;;;;;;12.05;7.97;;;3.00;99.90;;;;;;5015855;28;20099;-66
2021/12/26 11:00:17;;;;;;;12.88;8.02;;;2.90;99.90;;;;;;5014812;28;20372;-66
2021/12/26 11:02:52;;;;;;;12.85;8.52;;;3.10;99.90;;;;;;5015455;28;20022;-66
2021/12/26 11:05:22;;;;;;;11.82;8.20;;;3.00;99.90;;;;;;5011509;28;20025;-65
2021/12/26 11:07:57;;;;;;;13.75;9.38;;;3.00;99.90;;;;;;5015821;28;20036;-66
2021/12/26 11:10:24;;;;;;;14.85;8.07;;;3.10;99.90;;;;;;5007284;28;20118;-66
2021/12/26 11:12:56;;;;;;;13.90;9.30;;;3.20;99.90;;;;;;5008903;28;20029;-64
2021/12/26 11:15:23;;;;;;;;;;;3.10;99.90;;;;;;5013364;28;20045;-68
2021/12/26 11:17:56;;;;;;;12.70;8.27;;;3.10;99.90;;;;;;5015652;28;19913;-65
2021/12/26 11:20:40;;;;;;;14.23;9.32;;;3.30;99.90;;;;;;5017044;28;20064;-68
2021/12/26 11:23:15;;;;;;;15.48;10.02;;;3.20;99.90;;;;;;5016212;28;20025;-66
2021/12/26 11:25:44;;;;;;;11.48;9.20;;;3.10;99.90;;;;;;5014846;28;20017;-67
2021/12/26 11:28:12;;;;;;;15.38;8.27;;;3.10;99.90;;;;;;5016024;28;20574;-67
2021/12/26 11:30:39;;;;;;;13.70;9.70;;;3.20;99.90;;;;;;5014415;28;20042;-66
2021/12/26 11:33:05;;;;;;;15.45;10.35;;;3.20;99.90;;;;;;5014036;28;20120;-65
2021/12/26 11:35:32;;;;;;;26.17;11.88;;;3.30;99.90;;;;;;5013730;28;20100;-63
2021/12/26 11:38:01;;;;;;;16.45;10.25;;;3.90;99.90;;;;;;5015203;28;20081;-63
2021/12/26 11:40:27;;;;;;;15.68;10.27;;;5.50;99.90;;;;;;5013937;28;20037;-63
2021/12/26 11:43:10;;;;;;;15.05;9.82;;;6.50;99.90;;;;;;5013999;28;20022;-63
2021/12/26 11:45:52;;;;;;;13.35;9.77;;;6.30;99.90;;;;;;5013384;28;20168;-66
2021/12/26 11:48:26;;;;;;;16.13;9.45;;;5.70;99.90;;;;;;5012734;28;20029;-66
2021/12/26 11:51:19;;;;;;;11.95;8.73;;;4.80;99.90;;;;;;5011721;28;20044;-68
2021/12/26 11:54:16;;;;;;;13.15;9.07;;;4.30;99.90;;;;;;5006888;28;20483;-66
2021/12/26 11:57:19;;;;;;;15.60;9.02;;;3.90;99.90;;;;;;5011026;28;20029;-68
2021/12/26 12:00:01;;;;;;;16.85;9.98;;;3.70;99.90;;;;;;5015088;28;20030;-67
2021/12/26 12:02:47;;;;;;;15.48;9.50;;;3.70;99.90;;;;;;5013096;28;20124;-67
2021/12/26 12:05:21;;;;;;;15.02;9.88;;;3.60;99.90;;;;;;5008133;28;20068;-65
2021/12/26 12:07:55;;;;;;;14.88;8.60;;;3.50;99.90;;;;;;5013157;28;20092;-67
2021/12/26 12:10:33;;;;;;;14.02;9.85;;;3.50;99.90;;;;;;5012810;28;20030;-68
2021/12/26 12:12:59;;;;;;;17.73;10.00;;;3.40;99.90;;;;;;5014911;28;20064;-65
2021/12/26 12:15:43;;;;;;;13.35;9.30;;;3.50;99.90;;;;;;5013749;28;20022;-67
2021/12/26 12:18:12;;;;;;;16.55;10.77;;;3.50;99.90;;;;;;5010015;28;20034;-65
2021/12/26 12:20:38;;;;;;;17.48;10.18;;;3.50;99.90;;;;;;4995327;28;20479;-67
2021/12/26 12:23:07;;;;;;;14.43;9.90;;;3.60;99.90;;;;;;5013165;28;20030;-67
2021/12/26 12:25:38;;;;;;;13.82;9.63;;;3.60;99.90;;;;;;5013199;28;20049;-68
2021/12/26 12:28:17;;;;;;;14.07;9.55;;;3.50;99.90;;;;;;5012783;28;20598;-65
2021/12/26 12:31:17;;;;;;;15.45;9.98;;;3.50;99.90;;;;;;5013731;28;20053;-71
2021/12/26 12:33:43;;;;;;;14.98;9.45;;;3.40;99.90;;;;;;5008239;28;20538;-69
2021/12/26 12:36:31;;;;;;;16.00;9.57;;;3.40;99.90;;;;;;4997918;28;20157;-68
2021/12/26 12:39:11;;;;;;;16.60;10.25;;;3.40;99.90;;;;;;5006307;28;20112;-66
2021/12/26 12:41:40;;;;;;;16.77;10.55;;;3.30;99.90;;;;;;5002489;28;20085;-71
2021/12/26 12:44:28;;;;;;;16.88;10.68;;;3.30;99.90;;;;;;5014385;28;20034;-71
2021/12/26 12:47:07;;;;;;;17.35;9.88;;;3.40;99.90;;;;;;5005240;28;20042;-67
2021/12/26 12:49:48;;;;;;;15.70;10.57;;;3.20;99.90;;;;;;5011614;28;20034;-67
2021/12/26 12:52:36;;;;;;;16.48;11.10;;;3.40;99.90;;;;;;5012692;28;20117;-65
2021/12/26 12:55:05;;;;;;;14.88;10.50;;;3.50;99.90;;;;;;5012978;28;20100;-67
2021/12/26 12:57:44;;;;;;;13.73;9.65;;;3.60;99.90;;;;;;5011163;28;20030;-66
2021/12/26 13:00:24;;;;;;;15.50;9.80;;;3.60;99.90;;;;;;5006000;28;20465;-65